Terminal Aerodrome Forecast
Issued by NWS

Home | Current Version | Previous Version | Text Only | Print | Product List | Glossary On
Versions: 1 2 3 4 5 6 7 8 9 10 11 12 13 14 15 16
821
FTUS44 KMAF 201125
TAFPEQ
TAF
KPEQ 201125Z 2012/2112 11020G27KT P6SM FEW050
     FM202100 09027G37KT P6SM BKN050 BKN100 PROB30 2021/2103
      09035G45KT 3SM -TSRA BLDU BKN040CB=

USA.gov is the U.S. government's official web portal to all federal, state and local government web resources and services.